createdAt,value
2019-05-15T00:02:10.965Z,14.06
2019-05-15T00:07:30.258Z,14.04
2019-05-15T00:12:52.226Z,14.00
2019-05-15T00:18:14.157Z,14.04
2019-05-15T00:23:35.578Z,14.02
2019-05-15T00:29:11.140Z,14.06
2019-05-15T00:34:21.020Z,14.02
2019-05-15T00:39:42.775Z,13.91
2019-05-15T00:45:04.818Z,13.80
2019-05-15T00:50:28.673Z,13.78
2019-05-15T00:55:50.046Z,13.83
2019-05-15T01:01:11.609Z,13.81
2019-05-15T01:06:33.434Z,13.87
2019-05-15T01:11:54.751Z,13.89
2019-05-15T01:17:18.492Z,13.87
2019-05-15T01:22:40.531Z,13.95
2019-05-15T01:28:02.254Z,13.88
2019-05-15T01:33:24.118Z,13.84
2019-05-15T01:38:47.965Z,13.86
2019-05-15T01:44:09.826Z,13.95
2019-05-15T01:49:31.647Z,13.98
2019-05-15T01:54:53.027Z,14.02
2019-05-15T02:00:15.490Z,14.11
2019-05-15T02:05:39.005Z,14.17
2019-05-15T02:11:00.721Z,14.21
2019-05-15T02:16:22.600Z,14.22
2019-05-15T02:21:44.486Z,14.20
2019-05-15T02:27:08.871Z,14.36
2019-05-15T02:32:30.371Z,14.30
2019-05-15T02:37:52.318Z,14.30
2019-05-15T02:43:13.813Z,14.24
2019-05-15T02:48:35.790Z,14.27
2019-05-15T02:53:58.588Z,14.22
2019-05-15T02:59:20.167Z,14.20
2019-05-15T03:04:41.945Z,14.24
2019-05-15T03:10:03.673Z,14.15
2019-05-15T03:15:28.667Z,14.22
2019-05-15T03:20:50.171Z,14.36
2019-05-15T03:26:12.059Z,14.46
2019-05-15T03:31:50.769Z,14.42
2019-05-15T03:37:02.489Z,14.51
2019-05-15T03:42:21.134Z,14.55
2019-05-15T03:47:42.902Z,14.54
2019-05-15T03:53:04.417Z,14.57
2019-05-15T03:58:28.797Z,14.59
2019-05-15T04:03:49.879Z,14.50
2019-05-15T04:09:11.505Z,14.12
2019-05-15T04:14:33.462Z,13.98
2019-05-15T04:19:55.395Z,14.14
2019-05-15T04:25:19.126Z,14.37
2019-05-15T04:30:40.927Z,14.51
2019-05-15T04:36:02.564Z,14.48
2019-05-15T04:41:24.074Z,14.43
2019-05-15T04:46:45.643Z,14.72
2019-05-15T04:52:10.179Z,14.83
2019-05-15T04:57:34.086Z,14.47
2019-05-15T05:02:54.642Z,14.44
2019-05-15T05:08:19.720Z,14.61
2019-05-15T05:13:39.790Z,14.93
2019-05-15T05:19:01.325Z,15.17
2019-05-15T05:24:23.164Z,15.44
2019-05-15T05:29:44.793Z,15.73
2019-05-15T05:35:08.461Z,16.05
2019-05-15T05:40:30.451Z,16.32
2019-05-15T05:45:52.521Z,16.38
2019-05-15T05:51:14.516Z,16.38
2019-05-15T05:56:37.804Z,16.60
2019-05-15T06:01:59.700Z,17.07
2019-05-15T06:07:22.724Z,17.24
2019-05-15T06:12:44.418Z,17.73
2019-05-15T06:18:08.144Z,17.84
2019-05-15T06:23:34.706Z,18.22
2019-05-15T06:28:53.491Z,18.35
2019-05-15T06:34:14.752Z,18.43
2019-05-15T06:39:36.394Z,18.47
2019-05-15T06:44:58.944Z,18.49
2019-05-15T06:50:34.555Z,18.34
2019-05-15T06:55:58.310Z,17.81
2019-05-15T07:01:19.968Z,18.05
2019-05-15T07:06:41.572Z,18.58
2019-05-15T07:12:03.772Z,19.20
2019-05-15T07:17:25.413Z,19.51
2019-05-15T07:22:49.082Z,19.82
2019-05-15T07:28:10.543Z,19.95
2019-05-15T07:33:39.743Z,20.08
2019-05-15T07:38:57.952Z,19.96
2019-05-15T07:44:19.683Z,19.89
2019-05-15T07:49:41.314Z,19.89
2019-05-15T07:55:03.475Z,20.06
2019-05-15T08:00:28.891Z,20.22
2019-05-15T08:05:58.623Z,20.17
2019-05-15T08:11:20.620Z,20.66
2019-05-15T08:16:39.618Z,20.83
2019-05-15T08:22:01.747Z,20.74
2019-05-15T08:27:23.832Z,20.76
2019-05-15T08:32:49.069Z,20.71
2019-05-15T08:38:09.239Z,20.30
2019-05-15T08:43:31.679Z,19.86
2019-05-15T08:48:53.195Z,19.56
2019-05-15T08:54:14.811Z,19.28
2019-05-15T08:59:38.155Z,18.69
2019-05-15T09:05:00.079Z,18.00
2019-05-15T09:10:21.681Z,17.96
2019-05-15T09:15:43.178Z,18.14
2019-05-15T09:21:05.199Z,18.19
2019-05-15T09:26:28.377Z,18.08
2019-05-15T09:31:50.291Z,18.18
2019-05-15T09:37:12.004Z,18.11
2019-05-15T09:42:33.651Z,18.00
2019-05-15T09:47:55.500Z,17.91
2019-05-15T09:53:18.813Z,17.80
2019-05-15T09:58:40.685Z,17.82
2019-05-15T10:04:02.539Z,17.63
2019-05-15T10:09:23.969Z,17.56
2019-05-15T10:14:48.899Z,17.65
2019-05-15T10:20:09.867Z,17.83
2019-05-15T10:25:31.778Z,17.72
2019-05-15T10:30:53.714Z,17.97
2019-05-15T10:36:15.466Z,18.23
2019-05-15T10:41:38.858Z,18.28
2019-05-15T10:47:00.894Z,18.51
2019-05-15T10:52:22.981Z,18.74
2019-05-15T10:57:44.919Z,18.81
2019-05-15T11:03:08.710Z,19.06
2019-05-15T11:08:30.296Z,19.06
2019-05-15T11:13:51.655Z,19.38
2019-05-15T11:19:13.515Z,19.56
2019-05-15T11:24:38.362Z,19.55
2019-05-15T11:29:59.147Z,20.24
2019-05-15T11:35:20.635Z,20.63
2019-05-15T11:40:42.324Z,20.47
2019-05-15T11:46:04.636Z,20.54
2019-05-15T11:51:28.880Z,20.71
2019-05-15T11:56:50.219Z,21.53
2019-05-15T12:02:12.055Z,21.55
2019-05-15T12:07:33.781Z,21.57
2019-05-15T12:12:55.463Z,21.60
2019-05-15T12:18:16.787Z,21.90
2019-05-15T12:23:38.878Z,21.41
2019-05-15T12:29:00.919Z,21.72
2019-05-15T12:34:22.570Z,21.88
2019-05-15T12:39:43.736Z,22.22
2019-05-15T13:01:21.449Z,23.47
2019-05-15T13:06:53.147Z,23.16
2019-05-15T13:12:04.986Z,23.26
2019-05-15T13:17:28.949Z,23.52
2019-05-15T13:28:11.856Z,23.30
2019-05-15T13:33:33.658Z,22.90
2019-05-15T13:38:55.200Z,23.12
2019-05-15T13:44:18.769Z,23.32
2019-05-15T13:49:41.820Z,23.40
2019-05-15T13:55:03.615Z,23.42
2019-05-15T14:00:28.761Z,23.29
2019-05-15T14:05:49.988Z,23.51
2019-05-15T14:11:11.700Z,23.66
2019-05-15T14:16:33.700Z,23.67
2019-05-15T14:21:55.362Z,23.50
2019-05-15T14:27:19.408Z,23.16
2019-05-15T14:32:41.235Z,22.96
2019-05-15T14:38:06.716Z,23.01
2019-05-15T14:43:26.026Z,23.01
2019-05-15T14:48:49.018Z,22.77
2019-05-15T14:54:11.455Z,22.92
2019-05-15T14:59:33.190Z,22.86
2019-05-15T15:04:54.741Z,22.87
2019-05-15T15:10:19.717Z,22.51
2019-05-15T15:15:42.229Z,21.59
2019-05-15T15:21:04.037Z,21.23
2019-05-15T15:26:25.388Z,21.08
2019-05-15T15:31:49.421Z,20.98
2019-05-15T15:37:11.360Z,21.35
2019-05-15T15:42:33.180Z,21.65
2019-05-15T15:47:54.864Z,21.38
2019-05-15T15:53:16.046Z,21.29
2019-05-15T15:58:37.983Z,21.61
2019-05-15T16:03:59.723Z,21.38
2019-05-15T16:09:21.411Z,20.46
2019-05-15T16:14:42.829Z,20.44
2019-05-15T16:20:05.265Z,20.08
2019-05-15T16:25:28.819Z,20.13
2019-05-15T16:30:51.728Z,19.80
2019-05-15T16:36:13.684Z,19.74
2019-05-15T16:41:35.348Z,19.64
2019-05-15T16:46:58.846Z,19.34
2019-05-15T16:52:20.789Z,19.23
2019-05-15T16:57:42.953Z,19.25
2019-05-15T17:03:13.717Z,19.04
2019-05-15T17:08:29.495Z,19.11
2019-05-15T17:13:52.874Z,18.86
2019-05-15T17:19:14.549Z,18.91
2019-05-15T17:24:36.545Z,18.84
2019-05-15T17:29:59.886Z,18.57
2019-05-15T17:35:21.462Z,18.67
2019-05-15T17:40:43.150Z,18.74
2019-05-15T17:46:05.215Z,18.69
2019-05-15T17:51:27.715Z,18.63
2019-05-15T17:56:49.715Z,18.49
2019-05-15T18:02:11.466Z,18.42
2019-05-15T18:07:33.266Z,18.25
2019-05-15T18:12:54.746Z,17.93
2019-05-15T18:18:18.535Z,17.93
2019-05-15T18:23:40.221Z,17.79
2019-05-15T18:29:02.290Z,17.79
2019-05-15T18:34:24.166Z,17.84
2019-05-15T18:39:48.173Z,17.84
2019-05-15T18:45:10.731Z,17.95
2019-05-15T18:50:32.481Z,17.95
2019-05-15T18:55:54.419Z,18.04
2019-05-15T19:01:17.798Z,17.98
2019-05-15T19:06:39.791Z,17.94
2019-05-15T19:12:01.107Z,17.94
2019-05-15T19:17:23.398Z,17.55
2019-05-15T19:22:44.755Z,17.55
2019-05-15T19:28:08.518Z,16.94
2019-05-15T19:33:36.930Z,16.67
2019-05-15T19:38:54.027Z,16.34
2019-05-15T19:44:17.838Z,16.34
2019-05-15T19:49:42.429Z,16.03
2019-05-15T19:55:04.438Z,15.83
2019-05-15T20:00:28.518Z,15.78
2019-05-15T20:05:50.206Z,15.76
2019-05-15T20:11:12.031Z,15.60
2019-05-15T20:16:33.904Z,15.63
2019-05-15T20:21:55.858Z,15.80
2019-05-15T20:27:18.787Z,15.92
2019-05-15T20:32:40.785Z,16.06
2019-05-15T20:38:02.663Z,16.11
2019-05-15T20:43:24.304Z,15.97
2019-05-15T20:48:45.728Z,15.83
2019-05-15T20:54:08.381Z,15.70
2019-05-15T20:59:30.417Z,15.57
2019-05-15T21:04:52.332Z,15.45
2019-05-15T21:10:14.238Z,15.37
2019-05-15T21:15:36.207Z,15.49
2019-05-15T21:20:58.011Z,15.50
2019-05-15T21:26:19.790Z,15.53
2019-05-15T21:31:41.553Z,15.61
2019-05-15T21:37:03.267Z,15.75
2019-05-15T21:42:24.690Z,15.94
2019-05-15T21:47:46.333Z,16.09
2019-05-15T21:53:07.964Z,16.04
2019-05-15T21:58:29.743Z,16.20
2019-05-15T22:03:52.934Z,16.41
2019-05-15T22:09:18.338Z,16.51
2019-05-15T22:14:40.411Z,16.37
2019-05-15T22:20:02.147Z,16.37
2019-05-15T22:25:23.977Z,16.22
2019-05-15T22:30:47.836Z,16.21
2019-05-15T22:36:09.503Z,16.13
2019-05-15T22:41:31.375Z,15.89
2019-05-15T22:46:53.151Z,16.03
2019-05-15T22:52:14.844Z,16.03
2019-05-15T22:57:38.858Z,16.04
2019-05-15T23:03:00.766Z,15.96
2019-05-15T23:08:22.847Z,15.96
2019-05-15T23:13:45.358Z,15.80
2019-05-15T23:19:08.156Z,15.69
2019-05-15T23:24:29.918Z,15.48
2019-05-15T23:29:51.562Z,15.48
2019-05-15T23:35:13.551Z,15.53
2019-05-15T23:40:35.258Z,15.45
2019-05-15T23:45:58.755Z,15.22
2019-05-15T23:51:20.381Z,15.12
2019-05-15T23:56:42.293Z,15.18
